Time;durP1;ratioP1;P1;durP2;ratioP2;P2;SDS_P1;SDS_P2;PMS_P1;PMS_P2;Temp;Humidity;BMP_temperature;BMP_pressure;BME280_temperature;BME280_humidity;BME280_pressure;Samples;Min_cycle;Max_cycle;Signal;HPM_P1;HPM_P2
2022/04/28 00:02:00;;;;;;;22.83;15.45;;;;;;;;;;4937178;29;20474;-72
2022/04/28 00:04:29;;;;;;;28.10;19.00;;;;;;;;;;4936702;29;20055;-72
2022/04/28 00:06:57;;;;;;;20.55;15.85;;;;;;;;;;4937559;29;20106;-72
2022/04/28 00:09:26;;;;;;;29.23;17.45;;;;;;;;;;4932249;29;20789;-72
2022/04/28 00:11:55;;;;;;;23.13;16.00;;;;;;;;;;4918752;29;20048;-72
2022/04/28 00:14:23;;;;;;;21.65;16.20;;;;;;;;;;4918756;29;20052;-72
2022/04/28 00:16:51;;;;;;;23.67;16.83;;;;;;;;;;4918169;29;20054;-72
2022/04/28 00:19:19;;;;;;;24.35;15.18;;;;;;;;;;4918460;29;20039;-72
2022/04/28 00:21:48;;;;;;;28.65;15.18;;;;;;;;;;4917971;29;20060;-72
2022/04/28 00:24:17;;;;;;;16.85;13.40;;;;;;;;;;4918787;29;20099;-72
2022/04/28 00:26:46;;;;;;;18.15;13.80;;;;;;;;;;4918176;29;20080;-72
2022/04/28 00:29:15;;;;;;;16.25;12.82;;;;;;;;;;4918368;29;20048;-72
2022/04/28 00:31:45;;;;;;;20.08;12.90;;;;;;;;;;4936074;29;20055;-72
2022/04/28 00:34:13;;;;;;;14.13;12.48;;;;;;;;;;4936837;29;20107;-71
2022/04/28 00:36:41;;;;;;;19.25;12.48;;;;;;;;;;4922710;29;20138;-71
2022/04/28 00:39:09;;;;;;;16.40;12.82;;;;;;;;;;4918541;29;20448;-72
2022/04/28 00:41:37;;;;;;;18.73;12.48;;;;;;;;;;4918466;29;20140;-71
2022/04/28 00:44:10;;;;;;;14.85;13.25;;;;;;;;;;4941839;29;20044;-72
2022/04/28 00:46:42;;;;;;;16.20;11.48;;;;;;;;;;4935048;29;20055;-72
2022/04/28 00:51:59;;;;;;;13.18;10.45;;;;;;;;;;4936041;29;20088;-73
2022/04/28 00:54:34;;;;;;;12.15;8.45;;;;;;;;;;4935870;29;20055;-72
2022/04/28 00:57:03;;;;;;;12.73;9.35;;;;;;;;;;4934936;29;20052;-73
2022/04/28 00:59:32;;;;;;;15.13;10.10;;;;;;;;;;4935954;29;20074;-72
2022/04/28 01:02:01;;;;;;;10.77;9.70;;;;;;;;;;4916924;29;20052;-72
2022/04/28 01:04:29;;;;;;;15.48;8.82;;;;;;;;;;4934993;29;20047;-73
2022/04/28 01:06:58;;;;;;;8.45;7.65;;;;;;;;;;4917864;29;20082;-73
2022/04/28 01:09:29;;;;;;;17.17;8.32;;;;;;;;;;4928879;29;20515;-73
2022/04/28 01:11:58;;;;;;;8.27;7.05;;;;;;;;;;4934621;29;20052;-72
2022/04/28 01:14:29;;;;;;;9.30;8.40;;;;;;;;;;4934830;29;20103;-72
2022/04/28 01:17:04;;;;;;;7.32;6.53;;;;;;;;;;4934674;29;20066;-73
2022/04/28 01:19:35;;;;;;;7.65;6.85;;;;;;;;;;4934729;29;20048;-72
2022/04/28 01:22:06;;;;;;;8.00;6.65;;;;;;;;;;4934317;29;20102;-73
2022/04/28 01:24:36;;;;;;;7.95;7.13;;;;;;;;;;4919318;29;20056;-73
2022/04/28 01:27:06;;;;;;;8.15;6.90;;;;;;;;;;4916244;29;20400;-73
2022/04/28 01:29:36;;;;;;;9.10;8.23;;;;;;;;;;4913702;29;20052;-72
2022/04/28 01:32:09;;;;;;;10.68;7.18;;;;;;;;;;4930004;29;20064;-73
2022/04/28 01:34:42;;;;;;;10.63;6.75;;;;;;;;;;4917099;29;20048;-73
2022/04/28 07:38:08;;;;;;;18.48;12.20;;;;;;;;;;5068247;27;20436;-75
2022/04/28 07:41:01;;;;;;;;;;;;;;;;;;5044272;28;20099;-75
2022/04/28 07:43:30;;;;;;;11.38;8.70;;;;;;;;;;5054286;28;19921;-77
2022/04/28 07:45:59;;;;;;;12.20;7.22;;;;;;;;;;5048825;28;20071;-75
2022/04/28 07:48:28;;;;;;;13.75;5.63;;;;;;;;;;5048406;28;20056;-77
2022/04/28 07:50:57;;;;;;;8.88;5.15;;;;;;;;;;5061346;28;20046;-76
2022/04/28 07:53:31;;;;;;;7.43;5.70;;;;;;;;;;5048475;28;20049;-75
2022/04/28 07:56:15;;;;;;;7.18;5.90;;;;;;;;;;5065557;28;20074;-76
2022/04/28 07:58:47;;;;;;;9.73;5.75;;;;;;;;;;5048698;28;20061;-76
2022/04/28 08:01:45;;;;;;;9.75;5.97;;;;;;;;;;5051164;28;20037;-77
2022/04/28 08:04:14;;;;;;;9.80;8.18;;;;;;;;;;5056787;28;20045;-77
2022/04/28 08:06:47;;;;;;;10.50;8.27;;;;;;;;;;5080469;28;20484;-77
2022/04/28 08:09:15;;;;;;;9.02;6.95;;;;;;;;;;5084624;28;20139;-78
2022/04/28 08:11:45;;;;;;;6.90;6.20;;;;;;;;;;5051167;28;20126;-77
2022/04/28 08:14:14;;;;;;;7.85;7.05;;;;;;;;;;5049101;28;20056;-77
2022/04/28 08:16:44;;;;;;;8.15;6.43;;;;;;;;;;5064988;28;20056;-77
2022/04/28 08:19:15;;;;;;;10.98;6.55;;;;;;;;;;5050108;28;20140;-77
2022/04/28 08:21:47;;;;;;;8.30;6.70;;;;;;;;;;5065064;28;20057;-76
2022/04/28 08:24:17;;;;;;;7.18;5.90;;;;;;;;;;5065203;28;20060;-77
2022/04/28 08:26:46;;;;;;;5.50;5.00;;;;;;;;;;5064869;28;20407;-77
2022/04/28 08:29:15;;;;;;;6.55;4.60;;;;;;;;;;5048473;28;20053;-77
2022/04/28 08:31:49;;;;;;;7.33;4.97;;;;;;;;;;5064859;28;20045;-77
2022/04/28 08:34:22;;;;;;;5.25;4.43;;;;;;;;;;5048290;28;20078;-78
2022/04/28 08:36:53;;;;;;;4.53;4.03;;;;;;;;;;5064311;28;20053;-77
2022/04/28 08:39:31;;;;;;;4.47;3.47;;;;;;;;;;5048562;28;20435;-77
2022/04/28 08:42:00;;;;;;;4.40;3.65;;;;;;;;;;5062558;28;20045;-76
2022/04/28 08:44:45;;;;;;;4.10;3.72;;;;;;;;;;5062237;28;20508;-78
2022/04/28 08:47:34;;;;;;;5.25;3.85;;;;;;;;;;5040804;28;20060;-75
2022/04/28 08:50:36;;;;;;;4.70;3.75;;;;;;;;;;5046849;28;20060;-77
2022/04/28 08:53:10;;;;;;;6.20;3.40;;;;;;;;;;5051587;28;20050;-77
2022/04/28 08:55:41;;;;;;;4.50;3.80;;;;;;;;;;5051012;28;20053;-77
2022/04/28 08:58:10;;;;;;;5.60;3.90;;;;;;;;;;5034651;28;20116;-77
2022/04/28 09:00:46;;;;;;;9.35;4.25;;;;;;;;;;5050915;28;20144;-78
2022/04/28 09:03:34;;;;;;;4.70;3.88;;;;;;;;;;5019885;28;20053;-78
2022/04/28 09:06:50;;;;;;;6.05;3.60;;;;;;;;;;5034099;28;20412;-76
2022/04/28 09:09:38;;;;;;;4.85;4.43;;;;;;;;;;5035525;28;20107;-76
2022/04/28 09:12:26;;;;;;;7.28;4.65;;;;;;;;;;5035679;28;20077;-76
2022/04/28 09:15:30;;;;;;;5.80;3.92;;;;;;;;;;5034168;28;20135;-75
2022/04/28 09:18:08;;;;;;;7.00;5.00;;;;;;;;;;5050500;28;20077;-76
2022/04/28 09:20:37;;;;;;;3.78;3.42;;;;;;;;;;5050424;28;20411;-76
2022/04/28 09:23:11;;;;;;;6.78;3.60;;;;;;;;;;5034105;28;20056;-76
2022/04/28 09:25:45;;;;;;;3.50;3.20;;;;;;;;;;5034263;28;20048;-76
2022/04/28 09:28:15;;;;;;;4.47;3.95;;;;;;;;;;5033875;28;20053;-76
2022/04/28 09:30:50;;;;;;;7.88;4.22;;;;;;;;;;5050710;28;20046;-76
2022/04/28 09:33:38;;;;;;;4.38;3.67;;;;;;;;;;5034627;28;20061;-76
2022/04/28 09:36:18;;;;;;;4.60;4.20;;;;;;;;;;5054606;28;20112;-75
2022/04/28 09:38:54;;;;;;;3.60;3.30;;;;;;;;;;5029525;28;20053;-77
2022/04/28 09:44:21;;;;;;;5.82;3.47;;;;;;;;;;5033126;28;20531;-77
2022/04/28 09:46:56;;;;;;;8.98;3.42;;;;;;;;;;5042868;28;20053;-75
2022/04/28 09:49:29;;;;;;;4.05;3.65;;;;;;;;;;5032446;28;20042;-74
2022/04/28 09:52:17;;;;;;;3.95;3.58;;;;;;;;;;5030025;28;20549;-75
2022/04/28 09:55:08;;;;;;;4.60;3.17;;;;;;;;;;5032124;28;20393;-80
2022/04/28 09:58:07;;;;;;;6.22;2.78;;;;;;;;;;5029726;28;20068;-73
2022/04/28 10:00:36;;;;;;;2.78;2.50;;;;;;;;;;5024398;28;20389;-76
2022/04/28 10:03:03;;;;;;;4.13;3.10;;;;;;;;;;5034760;28;20098;-80
2022/04/28 10:05:37;;;;;;;5.97;3.28;;;;;;;;;;5049030;28;20165;-74
2022/04/28 10:08:25;;;;;;;5.90;3.53;;;;;;;;;;5034024;28;20124;-76
2022/04/28 10:10:56;;;;;;;3.97;3.53;;;;;;;;;;5027958;28;20528;-77
2022/04/28 10:13:26;;;;;;;5.70;3.28;;;;;;;;;;5034607;28;20054;-76
2022/04/28 10:16:03;;;;;;;3.35;2.63;;;;;;;;;;5033827;28;20504;-80
2022/04/28 10:18:38;;;;;;;4.07;3.08;;;;;;;;;;5049538;28;20050;-75
2022/04/28 10:21:13;;;;;;;4.03;3.58;;;;;;;;;;5033629;28;20511;-75
2022/04/28 10:32:58;;;;;;;3.13;2.85;;;;;;;;;;5029748;28;20514;-81
2022/04/28 10:35:35;;;;;;;;;;;;;;;;;;5050027;28;20447;-81
2022/04/28 10:38:20;;;;;;;6.15;3.40;;;;;;;;;;5052200;28;20334;-81
2022/04/28 10:40:59;;;;;;;3.75;3.08;;;;;;;;;;5043668;28;20052;-81
2022/04/28 10:43:33;;;;;;;3.13;2.83;;;;;;;;;;5033716;28;20060;-82
2022/04/28 10:46:06;;;;;;;5.38;2.80;;;;;;;;;;5053300;28;20064;-81
2022/04/28 10:48:42;;;;;;;2.70;2.50;;;;;;;;;;5051185;28;20571;-76
2022/04/28 10:51:15;;;;;;;4.60;3.17;;;;;;;;;;5028691;28;20049;-77
2022/04/28 10:53:58;;;;;;;5.80;2.97;;;;;;;;;;5032933;28;20085;-78
2022/04/28 10:56:50;;;;;;;4.35;3.50;;;;;;;;;;5032120;28;20057;-76
2022/04/28 10:59:37;;;;;;;3.30;3.00;;;;;;;;;;5033308;28;20049;-81
2022/04/28 11:02:13;;;;;;;3.55;3.25;;;;;;;;;;5033018;28;20053;-77
2022/04/28 11:04:45;;;;;;;4.13;3.15;;;;;;;;;;5033272;28;20423;-72
2022/04/28 11:07:17;;;;;;;3.60;2.92;;;;;;;;;;5031985;28;20420;-79
2022/04/28 11:09:49;;;;;;;3.38;3.08;;;;;;;;;;5032809;28;20049;-75
2022/04/28 11:12:19;;;;;;;5.72;3.63;;;;;;;;;;5025896;28;20108;-77
2022/04/28 11:14:59;;;;;;;26.33;5.05;;;;;;;;;;5028621;28;20054;-75
2022/04/28 11:17:29;;;;;;;7.93;3.60;;;;;;;;;;5028369;28;20073;-71
2022/04/28 11:20:04;;;;;;;4.00;3.05;;;;;;;;;;5029453;28;20076;-76
2022/04/28 11:22:48;;;;;;;3.13;2.83;;;;;;;;;;5043549;28;20128;-75
2022/04/28 11:25:19;;;;;;;2.63;2.42;;;;;;;;;;5028844;28;20080;-74
2022/04/28 11:27:53;;;;;;;6.97;2.83;;;;;;;;;;5027771;28;20137;-76
2022/04/28 11:30:25;;;;;;;5.55;2.83;;;;;;;;;;5029717;28;20041;-75
2022/04/28 11:32:59;;;;;;;10.65;3.55;;;;;;;;;;5024712;28;20708;-76
2022/04/28 11:35:43;;;;;;;5.90;2.97;;;;;;;;;;5030575;28;20407;-75
2022/04/28 11:38:12;;;;;;;3.03;2.50;;;;;;;;;;5029949;28;20041;-73
2022/04/28 11:40:44;;;;;;;3.67;2.50;;;;;;;;;;5029550;28;20121;-73
2022/04/28 11:43:11;;;;;;;3.03;2.83;;;;;;;;;;5020584;28;20072;-72
2022/04/28 11:45:42;;;;;;;2.88;2.63;;;;;;;;;;5025257;28;20480;-72
2022/04/28 11:48:10;;;;;;;4.28;2.55;;;;;;;;;;5027074;28;20049;-75
2022/04/28 11:50:39;;;;;;;3.25;2.30;;;;;;;;;;5044871;28;20459;-68
2022/04/28 11:53:12;;;;;;;6.57;2.85;;;;;;;;;;5023856;28;20061;-68
2022/04/28 11:55:57;;;;;;;6.82;3.00;;;;;;;;;;5026900;28;20058;-66
2022/04/28 11:58:35;;;;;;;2.97;2.67;;;;;;;;;;5024690;28;20103;-65
2022/04/28 12:01:03;;;;;;;5.32;2.88;;;;;;;;;;5030103;28;20424;-65
2022/04/28 12:03:31;;;;;;;3.15;2.58;;;;;;;;;;5025016;28;20037;-65
2022/04/28 12:06:02;;;;;;;3.38;3.00;;;;;;;;;;5021335;28;20038;-65
2022/04/28 12:08:30;;;;;;;3.33;2.75;;;;;;;;;;5026310;28;20455;-65
2022/04/28 12:20:03;;;;;;;4.10;2.83;;;;;;;;;;5031681;28;20107;-68
2022/04/28 12:22:35;;;;;;;3.83;3.05;;;;;;;;;;5035387;28;20052;-71
2022/04/28 12:25:15;;;;;;;3.65;3.05;;;;;;;;;;5030112;28;20080;-71
2022/04/28 12:27:48;;;;;;;5.07;2.97;;;;;;;;;;5025645;28;20053;-77
2022/04/28 12:30:19;;;;;;;2.97;2.10;;;;;;;;;;5022171;28;20042;-78
2022/04/28 12:32:54;;;;;;;2.83;2.13;;;;;;;;;;5031001;28;20045;-76
2022/04/28 12:35:32;;;;;;;5.32;2.10;;;;;;;;;;5028323;28;20049;-76
2022/04/28 12:38:06;;;;;;;3.97;2.75;;;;;;;;;;5024576;28;20561;-77
2022/04/28 12:40:37;;;;;;;5.60;3.55;;;;;;;;;;5027982;28;20221;-77
2022/04/28 12:43:04;;;;;;;2.58;2.38;;;;;;;;;;5035480;28;20076;-78
2022/04/28 12:45:54;;;;;;;2.50;2.30;;;;;;;;;;5036204;28;20038;-78
2022/04/28 12:48:26;;;;;;;2.92;2.63;;;;;;;;;;5026107;28;20057;-76
2022/04/28 12:51:14;;;;;;;2.85;2.28;;;;;;;;;;5033082;28;20120;-77
2022/04/28 12:53:45;;;;;;;5.38;2.58;;;;;;;;;;5030814;28;20053;-77
2022/04/28 12:56:40;;;;;;;2.33;2.13;;;;;;;;;;5036327;28;20171;-79
2022/04/28 12:59:08;;;;;;;;;;;;;;;;;;5025888;28;20499;-77
2022/04/28 13:01:38;;;;;;;1.90;1.70;;;;;;;;;;5026981;28;19921;-77
2022/04/28 13:04:47;;;;;;;3.45;2.75;;;;;;;;;;5025717;28;20034;-77
2022/04/28 13:07:16;;;;;;;2.92;2.42;;;;;;;;;;5030345;28;20067;-77
2022/04/28 13:09:45;;;;;;;4.82;2.63;;;;;;;;;;5033292;28;20048;-76
2022/04/28 13:12:14;;;;;;;7.28;2.35;;;;;;;;;;5036115;28;20046;-76
2022/04/28 13:14:43;;;;;;;4.28;2.05;;;;;;;;;;5031674;28;20073;-77
2022/04/28 13:17:11;;;;;;;3.08;2.58;;;;;;;;;;5032122;28;20054;-77
2022/04/28 13:19:40;;;;;;;7.03;2.20;;;;;;;;;;5021317;28;20049;-77
2022/04/28 13:22:10;;;;;;;2.20;2.00;;;;;;;;;;5028864;28;20102;-79
2022/04/28 13:24:38;;;;;;;7.70;2.40;;;;;;;;;;5026885;28;20060;-76
2022/04/28 13:27:10;;;;;;;3.53;1.95;;;;;;;;;;5036833;28;20143;-77
2022/04/28 13:29:39;;;;;;;2.63;2.00;;;;;;;;;;5026552;28;20077;-78
2022/04/28 13:32:09;;;;;;;5.00;3.60;;;;;;;;;;5034209;28;20084;-78
2022/04/28 13:34:38;;;;;;;3.17;2.03;;;;;;;;;;5034048;28;20144;-78
2022/04/28 13:37:08;;;;;;;2.78;2.53;;;;;;;;;;5035747;28;20064;-79
2022/04/28 13:39:38;;;;;;;3.88;2.10;;;;;;;;;;5028754;28;20056;-78
2022/04/28 13:42:07;;;;;;;4.20;2.22;;;;;;;;;;5027014;28;20507;-78
2022/04/28 13:44:36;;;;;;;3.78;2.20;;;;;;;;;;5026556;28;20054;-79
2022/04/28 13:47:05;;;;;;;4.22;2.28;;;;;;;;;;5033889;28;20046;-79
2022/04/28 13:49:33;;;;;;;2.72;2.00;;;;;;;;;;5026119;28;20069;-79
2022/04/28 13:52:01;;;;;;;3.53;2.10;;;;;;;;;;5024173;28;20053;-78
2022/04/28 13:54:30;;;;;;;2.65;2.45;;;;;;;;;;5023205;28;20052;-79
2022/04/28 13:56:57;;;;;;;4.45;1.92;;;;;;;;;;5032840;28;20059;-79
2022/04/28 13:59:29;;;;;;;4.97;2.97;;;;;;;;;;5025245;28;20042;-78
2022/04/28 14:01:58;;;;;;;4.15;2.60;;;;;;;;;;5020413;28;20132;-78
2022/04/28 14:04:26;;;;;;;2.28;1.88;;;;;;;;;;5032623;28;20124;-77
2022/04/28 14:06:54;;;;;;;6.57;2.13;;;;;;;;;;5034610;28;20049;-77
2022/04/28 14:09:23;;;;;;;5.25;1.80;;;;;;;;;;5038431;28;20045;-78
2022/04/28 14:11:51;;;;;;;5.38;2.35;;;;;;;;;;5032467;28;20041;-77
2022/04/28 14:14:21;;;;;;;2.45;2.25;;;;;;;;;;5031544;28;20077;-78
2022/04/28 14:16:50;;;;;;;3.00;1.88;;;;;;;;;;5027449;28;20050;-76
2022/04/28 14:19:21;;;;;;;6.68;2.47;;;;;;;;;;5033285;28;20189;-77
2022/04/28 14:21:49;;;;;;;2.92;2.20;;;;;;;;;;5032589;28;20465;-78
2022/04/28 14:24:17;;;;;;;5.43;2.30;;;;;;;;;;5036411;28;20061;-79
2022/04/28 14:26:46;;;;;;;4.53;2.40;;;;;;;;;;5027464;28;20503;-78
2022/04/28 14:29:18;;;;;;;3.53;1.88;;;;;;;;;;5028887;28;20064;-79
2022/04/28 14:31:46;;;;;;;5.13;2.28;;;;;;;;;;5029139;28;20100;-79
2022/04/28 14:34:21;;;;;;;3.30;2.20;;;;;;;;;;5036163;28;20068;-78
2022/04/28 14:36:50;;;;;;;2.85;2.65;;;;;;;;;;5027172;28;20081;-78
2022/04/28 14:39:19;;;;;;;2.72;2.40;;;;;;;;;;5032214;28;20060;-78
2022/04/28 14:41:49;;;;;;;6.93;2.28;;;;;;;;;;5034765;28;20060;-75
2022/04/28 14:44:37;;;;;;;2.75;2.47;;;;;;;;;;5029195;28;20118;-83
2022/04/28 14:47:06;;;;;;;5.93;2.50;;;;;;;;;;5031317;28;20079;-82
2022/04/28 14:52:20;;;;;;;4.15;2.40;;;;;;;;;;5030601;28;20550;-82
2022/04/28 14:54:55;;;;;;;3.90;2.30;;;;;;;;;;5028369;28;20058;-83
2022/04/28 14:57:26;;;;;;;2.80;2.60;;;;;;;;;;5028999;28;20054;-82
2022/04/28 14:59:56;;;;;;;7.10;2.42;;;;;;;;;;5032256;28;20050;-84
2022/04/28 15:02:28;;;;;;;4.70;2.42;;;;;;;;;;5036866;28;20445;-83
2022/04/28 15:04:56;;;;;;;2.97;2.25;;;;;;;;;;5025102;28;20049;-83
2022/04/28 15:07:24;;;;;;;3.13;2.45;;;;;;;;;;5023417;28;20044;-84
2022/04/28 15:09:56;;;;;;;3.97;2.45;;;;;;;;;;5025032;28;20053;-81
2022/04/28 15:12:24;;;;;;;2.85;2.65;;;;;;;;;;5026972;28;20049;-82
2022/04/28 15:14:51;;;;;;;3.47;2.80;;;;;;;;;;5028984;28;20056;-82
2022/04/28 15:17:19;;;;;;;3.90;2.60;;;;;;;;;;5033915;28;20488;-83
2022/04/28 15:19:48;;;;;;;2.75;2.35;;;;;;;;;;5027584;28;20045;-84
2022/04/28 15:22:15;;;;;;;6.32;2.63;;;;;;;;;;5028865;28;20134;-77
2022/04/28 15:24:45;;;;;;;3.00;2.63;;;;;;;;;;5030256;28;20079;-78
2022/04/28 15:27:13;;;;;;;4.80;2.63;;;;;;;;;;5022881;28;20140;-78
2022/04/28 15:29:43;;;;;;;4.50;2.40;;;;;;;;;;5028324;28;20052;-78
2022/04/28 15:32:32;;;;;;;4.18;2.50;;;;;;;;;;5028249;28;20053;-78
2022/04/28 15:35:00;;;;;;;2.70;2.47;;;;;;;;;;5036877;28;20099;-76
2022/04/28 15:37:28;;;;;;;3.47;2.35;;;;;;;;;;5025482;28;20073;-78
2022/04/28 15:39:56;;;;;;;4.78;2.33;;;;;;;;;;5052551;28;20186;-77
2022/04/28 15:42:24;;;;;;;4.60;3.00;;;;;;;;;;5029688;28;20053;-77
2022/04/28 15:44:53;;;;;;;3.55;2.88;;;;;;;;;;5034028;28;20049;-78
2022/04/28 15:47:21;;;;;;;3.22;2.40;;;;;;;;;;5035710;28;20079;-78
2022/04/28 15:49:49;;;;;;;3.85;2.17;;;;;;;;;;5030220;28;20584;-78
2022/04/28 15:52:17;;;;;;;6.65;3.13;;;;;;;;;;5030386;28;20500;-77
2022/04/28 15:54:45;;;;;;;4.90;2.78;;;;;;;;;;5028559;28;20567;-78
2022/04/28 15:57:14;;;;;;;5.30;2.88;;;;;;;;;;5032390;28;20129;-78
2022/04/28 15:59:42;;;;;;;3.95;2.45;;;;;;;;;;5029783;28;20042;-76
2022/04/28 16:02:10;;;;;;;3.67;2.83;;;;;;;;;;5030622;28;20073;-76
2022/04/28 16:04:38;;;;;;;3.15;2.92;;;;;;;;;;5034434;28;20076;-76
2022/04/28 16:07:14;;;;;;;4.05;3.05;;;;;;;;;;5034954;28;20057;-76
2022/04/28 16:09:42;;;;;;;3.67;2.28;;;;;;;;;;5042153;28;20508;-77
2022/04/28 16:12:10;;;;;;;3.30;3.00;;;;;;;;;;5029757;28;20049;-76
2022/04/28 16:14:39;;;;;;;4.20;2.45;;;;;;;;;;5033288;28;20091;-76
2022/04/28 16:17:08;;;;;;;3.83;2.95;;;;;;;;;;5030267;28;20049;-74
2022/04/28 16:19:38;;;;;;;2.08;1.98;;;;;;;;;;5034512;28;20050;-77
2022/04/28 16:22:06;;;;;;;2.92;2.72;;;;;;;;;;5026171;28;20050;-74
2022/04/28 16:24:35;;;;;;;2.45;2.25;;;;;;;;;;5034300;28;20049;-75
2022/04/28 16:27:05;;;;;;;2.78;2.30;;;;;;;;;;5034047;28;20424;-74
2022/04/28 16:29:33;;;;;;;2.80;2.60;;;;;;;;;;5034671;28;20062;-75
2022/04/28 16:32:01;;;;;;;3.25;2.53;;;;;;;;;;5041414;28;20156;-73
2022/04/28 16:34:32;;;;;;;4.00;3.08;;;;;;;;;;5029433;28;20054;-73
2022/04/28 16:37:01;;;;;;;2.25;2.05;;;;;;;;;;5030197;28;20229;-74
2022/04/28 16:39:32;;;;;;;2.60;2.03;;;;;;;;;;5037254;28;20056;-73
2022/04/28 16:42:02;;;;;;;3.85;2.28;;;;;;;;;;5025493;28;20057;-73
2022/04/28 16:44:32;;;;;;;3.75;2.15;;;;;;;;;;5028823;28;20072;-73
2022/04/28 16:47:01;;;;;;;5.50;3.67;;;;;;;;;;5034592;28;20131;-73
2022/04/28 16:49:29;;;;;;;2.60;2.40;;;;;;;;;;5053688;28;20053;-73
2022/04/28 16:51:57;;;;;;;2.45;2.25;;;;;;;;;;5027409;28;20463;-73
2022/04/28 16:54:27;;;;;;;2.65;2.45;;;;;;;;;;5027456;28;20045;-73
2022/04/28 16:56:56;;;;;;;9.15;2.47;;;;;;;;;;5034435;28;20049;-74
2022/04/28 16:59:27;;;;;;;2.50;2.28;;;;;;;;;;5028143;28;20049;-75
2022/04/28 17:01:54;;;;;;;2.45;2.22;;;;;;;;;;5025413;28;20052;-75
2022/04/28 17:04:27;;;;;;;5.10;2.33;;;;;;;;;;5025133;28;20049;-74
2022/04/28 17:06:59;;;;;;;2.80;2.22;;;;;;;;;;5031345;28;20052;-76
2022/04/28 17:09:28;;;;;;;2.35;2.15;;;;;;;;;;5031154;28;20049;-76
2022/04/28 17:11:58;;;;;;;4.53;2.42;;;;;;;;;;5035675;28;20519;-77
2022/04/28 17:14:29;;;;;;;2.17;1.92;;;;;;;;;;5020691;28;20191;-78
2022/04/28 17:16:58;;;;;;;4.22;2.05;;;;;;;;;;5030430;28;20077;-77
2022/04/28 17:19:28;;;;;;;2.58;2.38;;;;;;;;;;5031316;28;20503;-77
2022/04/28 17:21:57;;;;;;;2.55;2.28;;;;;;;;;;5037277;28;20389;-79
2022/04/28 17:24:25;;;;;;;2.25;2.08;;;;;;;;;;5026299;28;20072;-80
2022/04/28 17:26:53;;;;;;;7.20;2.67;;;;;;;;;;5027491;28;20080;-78
2022/04/28 17:29:24;;;;;;;10.70;2.63;;;;;;;;;;5035007;28;20063;-78
2022/04/28 17:31:54;;;;;;;3.70;2.40;;;;;;;;;;5037000;28;20053;-75
2022/04/28 17:34:23;;;;;;;3.30;2.47;;;;;;;;;;5029674;28;20057;-76
2022/04/28 17:36:52;;;;;;;3.05;2.72;;;;;;;;;;5029899;28;20053;-77
2022/04/28 17:39:23;;;;;;;5.32;2.90;;;;;;;;;;5026962;28;20069;-78
2022/04/28 17:41:51;;;;;;;4.82;2.47;;;;;;;;;;5034162;28;20045;-76
2022/04/28 17:44:20;;;;;;;4.07;2.38;;;;;;;;;;5037126;28;20065;-77
2022/04/28 17:46:49;;;;;;;4.40;2.38;;;;;;;;;;5024883;28;20489;-77
2022/04/28 17:49:18;;;;;;;5.30;2.45;;;;;;;;;;5030353;28;20057;-76
2022/04/28 17:51:46;;;;;;;4.60;3.35;;;;;;;;;;5030510;28;20049;-74
2022/04/28 17:54:14;;;;;;;6.93;3.22;;;;;;;;;;5035120;28;20049;-76
2022/04/28 18:02:17;;;;;;;4.75;3.28;;;;;;;;;;5030194;28;20042;-76
2022/04/28 18:04:46;;;;;;;4.80;4.30;;;;;;;;;;5037032;28;20068;-72
2022/04/28 18:07:15;;;;;;;4.47;3.08;;;;;;;;;;5024676;28;20055;-72
2022/04/28 18:09:46;;;;;;;8.52;3.60;;;;;;;;;;5028077;28;20103;-72
2022/04/28 18:12:14;;;;;;;4.93;3.20;;;;;;;;;;5033363;28;20050;-70
2022/04/28 18:14:43;;;;;;;2.72;2.53;;;;;;;;;;5035727;28;20057;-71
2022/04/28 18:17:14;;;;;;;3.33;2.60;;;;;;;;;;5027061;28;20504;-70
2022/04/28 18:19:42;;;;;;;16.13;4.28;;;;;;;;;;5038763;28;20034;-69
2022/04/28 18:22:11;;;;;;;5.70;4.63;;;;;;;;;;5025709;28;20057;-70
2022/04/28 18:24:41;;;;;;;8.52;4.25;;;;;;;;;;5033413;28;20161;-70
2022/04/28 18:27:09;;;;;;;11.60;6.80;;;;;;;;;;5031047;28;20502;-71
2022/04/28 18:29:40;;;;;;;9.82;5.40;;;;;;;;;;5028565;28;20136;-71
2022/04/28 18:32:09;;;;;;;8.93;5.18;;;;;;;;;;5023457;28;20454;-70
2022/04/28 18:34:38;;;;;;;11.68;5.90;;;;;;;;;;5028210;28;20041;-71
2022/04/28 18:45:28;;;;;;;5.32;3.22;;;;;;;;;;5032742;28;20436;-70
2022/04/28 18:47:57;;;;;;;5.30;3.10;;;;;;;;;;5027910;28;20050;-71
2022/04/28 18:50:26;;;;;;;3.85;3.42;;;;;;;;;;5028516;28;20487;-70
2022/04/28 18:52:55;;;;;;;7.78;3.70;;;;;;;;;;5027832;28;20037;-70
2022/04/28 18:55:24;;;;;;;4.05;3.75;;;;;;;;;;5030296;28;20064;-71
2022/04/28 18:57:53;;;;;;;6.22;3.45;;;;;;;;;;5032919;28;20136;-76
2022/04/28 19:00:23;;;;;;;4.07;3.67;;;;;;;;;;5023258;28;20046;-78
2022/04/28 19:02:52;;;;;;;5.93;4.22;;;;;;;;;;5021289;28;20053;-76
2022/04/28 19:05:21;;;;;;;9.38;6.00;;;;;;;;;;5023440;28;20042;-66
2022/04/28 19:07:50;;;;;;;8.57;6.15;;;;;;;;;;5026807;28;20128;-66
2022/04/28 19:10:19;;;;;;;7.05;6.35;;;;;;;;;;5038897;28;20045;-65
2022/04/28 19:12:47;;;;;;;9.45;6.93;;;;;;;;;;5051584;28;20075;-66
2022/04/28 19:15:15;;;;;;;6.85;6.20;;;;;;;;;;5050800;28;20041;-65
2022/04/28 19:17:43;;;;;;;9.57;6.35;;;;;;;;;;5042454;28;20047;-65
2022/04/28 19:20:13;;;;;;;6.97;4.97;;;;;;;;;;5031659;28;20049;-62
2022/04/28 19:22:42;;;;;;;6.20;5.63;;;;;;;;;;5031499;28;20385;-66
2022/04/28 19:25:10;;;;;;;6.88;5.40;;;;;;;;;;5032010;28;20050;-67
2022/04/28 19:27:39;;;;;;;6.45;5.57;;;;;;;;;;5031311;28;20099;-67
2022/04/28 19:30:10;;;;;;;8.05;5.93;;;;;;;;;;5031733;28;20045;-68
2022/04/28 19:32:39;;;;;;;9.25;5.80;;;;;;;;;;5024642;28;20045;-67
2022/04/28 19:35:14;;;;;;;8.25;6.95;;;;;;;;;;5020331;28;20503;-68
2022/04/28 19:37:43;;;;;;;11.45;6.40;;;;;;;;;;5032515;28;20057;-68
2022/04/28 19:40:16;;;;;;;11.52;6.55;;;;;;;;;;5027531;28;20045;-66
2022/04/28 19:42:46;;;;;;;8.88;7.82;;;;;;;;;;5028899;28;20459;-65
2022/04/28 19:45:16;;;;;;;7.00;4.97;;;;;;;;;;5030501;28;20053;-66
2022/04/28 19:47:47;;;;;;;5.30;4.57;;;;;;;;;;5027527;28;20583;-67
2022/04/28 19:50:16;;;;;;;10.40;4.90;;;;;;;;;;5028714;28;20485;-66
2022/04/28 19:52:45;;;;;;;9.25;5.25;;;;;;;;;;5022388;28;20057;-76
2022/04/28 19:55:13;;;;;;;6.22;5.63;;;;;;;;;;5022843;28;20050;-76
2022/04/28 19:57:42;;;;;;;6.90;5.20;;;;;;;;;;5028555;28;20083;-78
2022/04/28 20:00:12;;;;;;;6.57;5.35;;;;;;;;;;5028887;28;20496;-73
2022/04/28 20:02:40;;;;;;;8.10;5.22;;;;;;;;;;5029435;28;20037;-75
2022/04/28 20:05:12;;;;;;;7.68;5.45;;;;;;;;;;5026514;28;20081;-74
2022/04/28 20:07:40;;;;;;;7.15;5.20;;;;;;;;;;5031224;28;20045;-73
2022/04/28 20:10:11;;;;;;;8.98;5.70;;;;;;;;;;5024497;28;20054;-73
2022/04/28 20:12:40;;;;;;;8.93;6.03;;;;;;;;;;5025214;28;20456;-74
2022/04/28 20:15:11;;;;;;;6.93;5.65;;;;;;;;;;5022128;28;20088;-77
2022/04/28 20:17:40;;;;;;;6.40;5.78;;;;;;;;;;5030054;28;20069;-76
2022/04/28 20:20:13;;;;;;;5.95;5.32;;;;;;;;;;5031972;28;20426;-75
2022/04/28 20:22:43;;;;;;;6.53;5.88;;;;;;;;;;5025479;28;20049;-77
2022/04/28 20:25:13;;;;;;;7.30;6.45;;;;;;;;;;5034638;28;20052;-76
2022/04/28 20:27:47;;;;;;;6.55;5.85;;;;;;;;;;5034072;28;20065;-72
2022/04/28 20:30:19;;;;;;;10.13;6.97;;;;;;;;;;5030145;28;20069;-73
2022/04/28 20:32:50;;;;;;;7.43;6.70;;;;;;;;;;5030474;28;20053;-63
2022/04/28 20:35:21;;;;;;;10.05;5.75;;;;;;;;;;5021883;28;20049;-62
2022/04/28 20:37:51;;;;;;;6.68;5.85;;;;;;;;;;5027512;28;20463;-65
2022/04/28 20:40:19;;;;;;;6.45;5.85;;;;;;;;;;5031012;28;20057;-63
2022/04/28 20:42:48;;;;;;;7.72;5.82;;;;;;;;;;5031137;28;20077;-62
2022/04/28 20:45:16;;;;;;;7.35;5.85;;;;;;;;;;5028681;28;20049;-63
2022/04/28 20:47:45;;;;;;;7.22;5.47;;;;;;;;;;5029392;28;20561;-64
2022/04/28 20:50:14;;;;;;;6.15;5.30;;;;;;;;;;5031696;28;20415;-63
2022/04/28 20:52:43;;;;;;;6.57;5.90;;;;;;;;;;5037680;28;20064;-63
2022/04/28 20:55:12;;;;;;;6.30;5.22;;;;;;;;;;5026158;28;20054;-65
2022/04/28 20:57:41;;;;;;;5.07;4.55;;;;;;;;;;5033398;28;20042;-64
2022/04/28 21:00:13;;;;;;;5.60;4.65;;;;;;;;;;5033282;28;20048;-65
2022/04/28 21:02:42;;;;;;;5.38;4.38;;;;;;;;;;5036559;28;20057;-64
2022/04/28 21:05:13;;;;;;;9.13;4.80;;;;;;;;;;5033979;28;20099;-65
2022/04/28 21:07:44;;;;;;;5.40;4.40;;;;;;;;;;5026999;28;20141;-64
2022/04/28 21:10:14;;;;;;;7.10;5.00;;;;;;;;;;5029086;28;20057;-65
2022/04/28 21:12:44;;;;;;;4.72;4.07;;;;;;;;;;5035116;28;20076;-64
2022/04/28 21:15:13;;;;;;;4.43;4.03;;;;;;;;;;5035620;28;20045;-66
2022/04/28 21:17:42;;;;;;;4.45;4.05;;;;;;;;;;5036256;28;20046;-66
2022/04/28 21:20:14;;;;;;;5.45;4.95;;;;;;;;;;5029562;28;20489;-66
2022/04/28 21:22:46;;;;;;;8.30;4.00;;;;;;;;;;5036368;28;20055;-63
2022/04/28 21:25:15;;;;;;;7.40;4.07;;;;;;;;;;5043289;28;20080;-64
2022/04/28 21:27:44;;;;;;;5.20;4.70;;;;;;;;;;5035585;28;20060;-65
2022/04/28 21:30:15;;;;;;;5.53;3.40;;;;;;;;;;5034211;28;20095;-63
2022/04/28 21:32:44;;;;;;;4.32;3.92;;;;;;;;;;5050291;28;20049;-62
2022/04/28 21:35:12;;;;;;;7.90;4.00;;;;;;;;;;5027568;28;20041;-63
2022/04/28 21:37:40;;;;;;;14.10;5.88;;;;;;;;;;5032793;28;20057;-63
2022/04/28 21:40:13;;;;;;;7.05;3.90;;;;;;;;;;5032579;28;20098;-64
2022/04/28 21:42:41;;;;;;;6.85;4.75;;;;;;;;;;5025323;28;20513;-64
2022/04/28 21:45:10;;;;;;;4.63;4.22;;;;;;;;;;5029006;28;20057;-64
2022/04/28 21:47:42;;;;;;;6.10;4.40;;;;;;;;;;5033827;28;20044;-63
2022/04/28 21:50:11;;;;;;;8.02;4.95;;;;;;;;;;5029646;28;20502;-64